sensor_id;sensor_type;location;lat;lon;timestamp;pressure;altitude;pressure_sealevel;temperature;humidity
58821;BME280;70670;52.476;13.334;2023-12-20T00:01:03;100315.75;;;5.04;100.00
58821;BME280;70670;52.476;13.334;2023-12-20T00:03:40;100321.09;;;5.02;100.00
58821;BME280;70670;52.476;13.334;2023-12-20T00:06:05;100332.56;;;5.03;100.00
58821;BME280;70670;52.476;13.334;2023-12-20T00:08:31;100321.94;;;5.03;100.00
58821;BME280;70670;52.476;13.334;2023-12-20T00:10:56;100322.84;;;5.03;100.00
58821;BME280;70670;52.476;13.334;2023-12-20T00:13:22;100319.38;;;5.01;100.00
58821;BME280;70670;52.476;13.334;2023-12-20T00:15:47;100314.91;;;5.02;100.00
58821;BME280;70670;52.476;13.334;2023-12-20T00:18:13;100302.59;;;5.01;100.00
58821;BME280;70670;52.476;13.334;2023-12-20T00:20:38;100304.31;;;5.02;100.00
58821;BME280;70670;52.476;13.334;2023-12-20T00:23:04;100300.72;;;5.03;100.00
58821;BME280;70670;52.476;13.334;2023-12-20T00:25:29;100304.28;;;5.03;100.00
58821;BME280;70670;52.476;13.334;2023-12-20T00:27:55;100305.13;;;5.04;100.00
58821;BME280;70670;52.476;13.334;2023-12-20T00:30:20;100298.03;;;5.04;100.00
58821;BME280;70670;52.476;13.334;2023-12-20T00:32:46;100295.31;;;5.06;100.00
58821;BME280;70670;52.476;13.334;2023-12-20T00:35:12;100295.41;;;5.03;100.00
58821;BME280;70670;52.476;13.334;2023-12-20T00:37:38;100296.34;;;5.02;100.00
58821;BME280;70670;52.476;13.334;2023-12-20T00:40:03;100291.88;;;5.04;100.00
58821;BME280;70670;52.476;13.334;2023-12-20T00:42:29;100291.88;;;5.04;100.00
58821;BME280;70670;52.476;13.334;2023-12-20T00:44:54;100299.75;;;5.05;100.00
58821;BME280;70670;52.476;13.334;2023-12-20T00:47:20;100292.66;;;5.06;100.00
58821;BME280;70670;52.476;13.334;2023-12-20T00:49:46;100288.28;;;5.05;100.00
58821;BME280;70670;52.476;13.334;2023-12-20T00:52:11;100286.56;;;5.04;100.00
58821;BME280;70670;52.476;13.334;2023-12-20T00:54:37;100291.88;;;5.04;100.00
58821;BME280;70670;52.476;13.334;2023-12-20T00:57:02;100291.00;;;5.03;100.00
58821;BME280;70670;52.476;13.334;2023-12-20T00:59:27;100283.06;;;5.03;100.00
58821;BME280;70670;52.476;13.334;2023-12-20T01:01:53;100291.81;;;5.05;100.00
58821;BME280;70670;52.476;13.334;2023-12-20T01:04:18;100293.59;;;5.05;100.00
58821;BME280;70670;52.476;13.334;2023-12-20T01:06:44;100307.66;;;5.07;100.00
58821;BME280;70670;52.476;13.334;2023-12-20T01:09:10;100302.47;;;5.04;100.00
58821;BME280;70670;52.476;13.334;2023-12-20T01:11:35;100312.09;;;5.06;100.00
58821;BME280;70670;52.476;13.334;2023-12-20T01:14:00;100294.56;;;5.02;100.00
58821;BME280;70670;52.476;13.334;2023-12-20T01:16:26;100292.78;;;5.03;100.00
58821;BME280;70670;52.476;13.334;2023-12-20T01:18:51;100299.88;;;5.02;100.00
58821;BME280;70670;52.476;13.334;2023-12-20T01:21:17;100293.69;;;5.02;100.00
58821;BME280;70670;52.476;13.334;2023-12-20T01:23:42;100299.00;;;5.02;100.00
58821;BME280;70670;52.476;13.334;2023-12-20T01:26:08;100299.88;;;5.02;100.00
58821;BME280;70670;52.476;13.334;2023-12-20T01:28:34;100291.00;;;5.03;100.00
58821;BME280;70670;52.476;13.334;2023-12-20T01:30:59;100302.47;;;5.04;100.00
58821;BME280;70670;52.476;13.334;2023-12-20T01:33:25;100300.72;;;5.03;100.00
58821;BME280;70670;52.476;13.334;2023-12-20T01:35:50;100298.03;;;5.04;100.00
58821;BME280;70670;52.476;13.334;2023-12-20T01:38:16;100295.41;;;5.03;100.00
58821;BME280;70670;52.476;13.334;2023-12-20T01:40:44;100300.00;;;4.99;100.00
58821;BME280;70670;52.476;13.334;2023-12-20T01:43:09;100293.69;;;5.02;100.00
58821;BME280;70670;52.476;13.334;2023-12-20T01:45:37;100284.81;;;5.03;100.00
58821;BME280;70670;52.476;13.334;2023-12-20T01:48:02;100291.06;;;5.02;100.00
58821;BME280;70670;52.476;13.334;2023-12-20T01:50:30;100284.81;;;5.03;100.00
58821;BME280;70670;52.476;13.334;2023-12-20T01:53:00;100275.09;;;5.03;100.00
58821;BME280;70670;52.476;13.334;2023-12-20T01:55:27;100277.69;;;5.05;100.00
58821;BME280;70670;52.476;13.334;2023-12-20T01:57:54;100284.81;;;5.03;100.00
58821;BME280;70670;52.476;13.334;2023-12-20T02:00:19;100280.31;;;5.05;100.00
58821;BME280;70670;52.476;13.334;2023-12-20T02:02:48;100277.69;;;5.05;100.00
58821;BME280;70670;52.476;13.334;2023-12-20T02:05:15;100268.03;;;5.02;100.00
58821;BME280;70670;52.476;13.334;2023-12-20T02:07:41;100267.19;;;5.02;100.00
58821;BME280;70670;52.476;13.334;2023-12-20T02:10:07;100261.75;;;5.05;100.00
58821;BME280;70670;52.476;13.334;2023-12-20T02:12:32;100265.28;;;5.05;100.00
58821;BME280;70670;52.476;13.334;2023-12-20T02:14:58;100268.91;;;5.03;100.00
58821;BME280;70670;52.476;13.334;2023-12-20T02:17:23;100272.50;;;5.02;100.00
58821;BME280;70670;52.476;13.334;2023-12-20T02:19:49;100276.84;;;5.03;100.00
58821;BME280;70670;52.476;13.334;2023-12-20T02:22:15;100276.84;;;5.03;100.00
58821;BME280;70670;52.476;13.334;2023-12-20T02:24:40;100268.88;;;5.04;100.00
58821;BME280;70670;52.476;13.334;2023-12-20T02:27:06;100261.03;;;5.01;100.00
58821;BME280;70670;52.476;13.334;2023-12-20T02:29:33;100265.47;;;5.01;100.00
58821;BME280;70670;52.476;13.334;2023-12-20T02:31:58;100278.53;;;5.05;100.00
58821;BME280;70670;52.476;13.334;2023-12-20T02:34:23;100269.72;;;5.05;100.00
58821;BME280;70670;52.476;13.334;2023-12-20T02:36:49;100275.97;;;5.04;100.00
58821;BME280;70670;52.476;13.334;2023-12-20T02:39:14;100263.59;;;5.03;100.00
58821;BME280;70670;52.476;13.334;2023-12-20T02:41:40;100256.56;;;5.02;100.00
58821;BME280;70670;52.476;13.334;2023-12-20T02:44:05;100232.41;;;4.87;100.00
58821;BME280;70670;52.476;13.334;2023-12-20T02:46:31;100260.91;;;5.04;100.00
58821;BME280;70670;52.476;13.334;2023-12-20T02:48:56;100263.59;;;5.03;100.00
58821;BME280;70670;52.476;13.334;2023-12-20T02:51:22;100263.59;;;5.03;100.00
58821;BME280;70670;52.476;13.334;2023-12-20T02:53:47;100263.47;;;5.06;100.00
58821;BME280;70670;52.476;13.334;2023-12-20T02:56:12;100265.34;;;5.04;100.00
58821;BME280;70670;52.476;13.334;2023-12-20T02:58:39;100262.75;;;5.02;100.00
58821;BME280;70670;52.476;13.334;2023-12-20T03:01:05;100257.44;;;5.02;100.00
58821;BME280;70670;52.476;13.334;2023-12-20T03:03:31;100257.59;;;4.99;100.00
58821;BME280;70670;52.476;13.334;2023-12-20T03:05:56;100259.34;;;4.99;100.00
58821;BME280;70670;52.476;13.334;2023-12-20T03:08:21;100275.22;;;5.00;100.00
58821;BME280;70670;52.476;13.334;2023-12-20T03:10:47;100273.53;;;4.98;100.00
58821;BME280;70670;52.476;13.334;2023-12-20T03:13:12;100279.66;;;5.00;100.00
58821;BME280;70670;52.476;13.334;2023-12-20T03:15:38;100271.63;;;5.01;100.00
58821;BME280;70670;52.476;13.334;2023-12-20T03:18:03;100271.75;;;4.98;100.00
58821;BME280;70670;52.476;13.334;2023-12-20T03:20:29;100275.22;;;5.00;100.00
58821;BME280;70670;52.476;13.334;2023-12-20T03:22:58;100287.72;;;4.97;100.00
58821;BME280;70670;52.476;13.334;2023-12-20T03:25:23;100285.06;;;4.97;100.00
58821;BME280;70670;52.476;13.334;2023-12-20T03:27:49;100279.78;;;4.97;100.00
58821;BME280;70670;52.476;13.334;2023-12-20T03:30:14;100275.41;;;4.96;100.00
58821;BME280;70670;52.476;13.334;2023-12-20T03:32:40;100278.94;;;4.94;100.00
58821;BME280;70670;52.476;13.334;2023-12-20T03:35:05;100270.09;;;4.96;100.00
58821;BME280;70670;52.476;13.334;2023-12-20T03:37:31;100275.44;;;4.94;100.00
58821;BME280;70670;52.476;13.334;2023-12-20T03:39:56;100281.56;;;4.96;100.00
58821;BME280;70670;52.476;13.334;2023-12-20T03:42:22;100285.19;;;4.93;100.00
58821;BME280;70670;52.476;13.334;2023-12-20T03:44:47;100278.09;;;4.94;100.00
58821;BME280;70670;52.476;13.334;2023-12-20T03:47:13;100274.56;;;4.93;100.00
58821;BME280;70670;52.476;13.334;2023-12-20T03:49:38;100275.44;;;4.94;100.00
58821;BME280;70670;52.476;13.334;2023-12-20T03:52:04;100275.41;;;4.96;100.00
58821;BME280;70670;52.476;13.334;2023-12-20T03:54:30;100278.09;;;4.94;100.00
58821;BME280;70670;52.476;13.334;2023-12-20T03:56:55;100271.94;;;4.93;100.00
58821;BME280;70670;52.476;13.334;2023-12-20T03:59:21;100271.13;;;4.91;100.00
58821;BME280;70670;52.476;13.334;2023-12-20T04:01:46;100260.66;;;4.88;100.00
58821;BME280;70670;52.476;13.334;2023-12-20T04:04:12;100256.28;;;4.87;100.00
58821;BME280;70670;52.476;13.334;2023-12-20T04:06:38;100257.25;;;4.85;100.00
58821;BME280;70670;52.476;13.334;2023-12-20T04:09:03;100254.59;;;4.85;100.00
58821;BME280;70670;52.476;13.334;2023-12-20T04:11:29;100254.72;;;4.82;100.00
58821;BME280;70670;52.476;13.334;2023-12-20T04:13:54;100246.72;;;4.83;100.00
58821;BME280;70670;52.476;13.334;2023-12-20T04:16:20;100242.50;;;4.78;100.00
58821;BME280;70670;52.476;13.334;2023-12-20T04:18:45;100244.22;;;4.79;100.00
58821;BME280;70670;52.476;13.334;2023-12-20T04:21:10;100247.03;;;4.74;100.00
58821;BME280;70670;52.476;13.334;2023-12-20T04:23:36;100237.44;;;4.72;100.00
58821;BME280;70670;52.476;13.334;2023-12-20T04:26:01;100240.13;;;4.70;100.00
58821;BME280;70670;52.476;13.334;2023-12-20T04:28:27;100236.69;;;4.68;100.00
58821;BME280;70670;52.476;13.334;2023-12-20T04:30:55;100233.22;;;4.66;100.00
58821;BME280;70670;52.476;13.334;2023-12-20T04:33:21;100226.31;;;4.62;100.00
58821;BME280;70670;52.476;13.334;2023-12-20T04:35:46;100230.84;;;4.60;100.00
58821;BME280;70670;52.476;13.334;2023-12-20T04:38:12;100240.72;;;4.55;100.00
58821;BME280;70670;52.476;13.334;2023-12-20T04:40:37;100244.19;;;4.57;100.00
58821;BME280;70670;52.476;13.334;2023-12-20T04:43:03;100238.16;;;4.53;100.00
58821;BME280;70670;52.476;13.334;2023-12-20T04:45:28;100253.38;;;4.48;100.00
58821;BME280;70670;52.476;13.334;2023-12-20T04:47:54;100246.38;;;4.46;100.00
58821;BME280;70670;52.476;13.334;2023-12-20T04:50:20;100239.34;;;4.44;100.00
58821;BME280;70670;52.476;13.334;2023-12-20T04:52:46;100241.38;;;4.38;100.00
58821;BME280;70670;52.476;13.334;2023-12-20T04:55:12;100232.63;;;4.36;100.00
58821;BME280;70670;52.476;13.334;2023-12-20T04:57:38;100232.66;;;4.34;100.00
58821;BME280;70670;52.476;13.334;2023-12-20T05:00:03;100237.22;;;4.31;100.00
58821;BME280;70670;52.476;13.334;2023-12-20T05:02:30;100240.84;;;4.28;100.00
58821;BME280;70670;52.476;13.334;2023-12-20T05:04:55;100243.63;;;4.25;100.00
58821;BME280;70670;52.476;13.334;2023-12-20T05:07:21;100251.72;;;4.21;100.00
58821;BME280;70670;52.476;13.334;2023-12-20T05:09:46;100254.41;;;4.19;100.00
58821;BME280;70670;52.476;13.334;2023-12-20T05:12:12;100261.47;;;4.20;100.00
58821;BME280;70670;52.476;13.334;2023-12-20T05:14:37;100257.13;;;4.17;100.00
58821;BME280;70670;52.476;13.334;2023-12-20T05:17:03;100253.63;;;4.17;100.00
58821;BME280;70670;52.476;13.334;2023-12-20T05:19:29;100262.50;;;4.16;100.00
58821;BME280;70670;52.476;13.334;2023-12-20T05:21:54;100247.63;;;4.12;100.00
58821;BME280;70670;52.476;13.334;2023-12-20T05:24:19;100252.94;;;4.12;100.00
58821;BME280;70670;52.476;13.334;2023-12-20T05:26:45;100258.44;;;4.06;100.00
58821;BME280;70670;52.476;13.334;2023-12-20T05:29:11;100265.44;;;4.07;100.00
58821;BME280;70670;52.476;13.334;2023-12-20T05:31:37;100258.63;;;4.00;100.00
58821;BME280;70670;52.476;13.334;2023-12-20T05:34:02;100262.31;;;3.95;100.00
58821;BME280;70670;52.476;13.334;2023-12-20T05:36:28;100247.34;;;3.94;100.00
58821;BME280;70670;52.476;13.334;2023-12-20T05:38:53;100252.88;;;3.88;100.00
58821;BME280;70670;52.476;13.334;2023-12-20T05:41:19;100258.31;;;3.84;100.00
58821;BME280;70670;52.476;13.334;2023-12-20T05:43:44;100253.09;;;3.82;100.00
58821;BME280;70670;52.476;13.334;2023-12-20T05:46:10;100247.84;;;3.81;100.00
58821;BME280;70670;52.476;13.334;2023-12-20T05:48:37;100254.13;;;3.78;100.00
58821;BME280;70670;52.476;13.334;2023-12-20T05:51:02;100244.38;;;3.79;100.00
58821;BME280;70670;52.476;13.334;2023-12-20T05:53:28;100199.56;;;3.49;100.00
58821;BME280;70670;52.476;13.334;2023-12-20T05:55:53;100245.47;;;3.73;100.00
58821;BME280;70670;52.476;13.334;2023-12-20T05:58:19;100245.47;;;3.73;100.00
58821;BME280;70670;52.476;13.334;2023-12-20T06:00:44;100250.00;;;3.69;100.00
58821;BME280;70670;52.476;13.334;2023-12-20T06:03:10;100238.66;;;3.66;100.00
58821;BME280;70670;52.476;13.334;2023-12-20T06:05:35;100238.72;;;3.64;100.00
58821;BME280;70670;52.476;13.334;2023-12-20T06:08:01;100229.88;;;3.65;100.00
58821;BME280;70670;52.476;13.334;2023-12-20T06:10:28;100229.09;;;3.62;100.00
58821;BME280;70670;52.476;13.334;2023-12-20T06:12:53;100230.91;;;3.60;100.00
58821;BME280;70670;52.476;13.334;2023-12-20T06:15:19;100219.53;;;3.58;100.00
58821;BME280;70670;52.476;13.334;2023-12-20T06:17:44;100222.22;;;3.56;100.00
58821;BME280;70670;52.476;13.334;2023-12-20T06:20:11;100230.22;;;3.55;100.00
58821;BME280;70670;52.476;13.334;2023-12-20T06:22:38;100223.22;;;3.54;100.00
58821;BME280;70670;52.476;13.334;2023-12-20T06:25:04;100230.31;;;3.52;100.00
58821;BME280;70670;52.476;13.334;2023-12-20T06:27:29;100239.09;;;3.54;100.00
58821;BME280;70670;52.476;13.334;2023-12-20T06:29:56;100234.66;;;3.54;100.00
58821;BME280;70670;52.476;13.334;2023-12-20T06:32:21;100235.50;;;3.55;100.00
58821;BME280;70670;52.476;13.334;2023-12-20T06:34:48;100234.66;;;3.54;100.00
58821;BME280;70670;52.476;13.334;2023-12-20T06:37:14;100246.19;;;3.52;100.00
58821;BME280;70670;52.476;13.334;2023-12-20T06:39:40;100232.09;;;3.51;100.00
58821;BME280;70670;52.476;13.334;2023-12-20T06:42:05;100234.72;;;3.53;100.00
58821;BME280;70670;52.476;13.334;2023-12-20T06:44:31;100233.88;;;3.51;100.00
58821;BME280;70670;52.476;13.334;2023-12-20T06:46:56;100230.28;;;3.53;100.00
58821;BME280;70670;52.476;13.334;2023-12-20T06:49:22;100239.09;;;3.54;100.00
58821;BME280;70670;52.476;13.334;2023-12-20T06:51:47;100229.38;;;3.54;100.00
58821;BME280;70670;52.476;13.334;2023-12-20T06:54:13;100230.31;;;3.52;100.00
58821;BME280;70670;52.476;13.334;2023-12-20T06:56:38;100232.97;;;3.52;100.00
58821;BME280;70670;52.476;13.334;2023-12-20T06:59:04;100219.72;;;3.52;100.00
58821;BME280;70670;52.476;13.334;2023-12-20T07:01:29;100232.00;;;3.54;100.00
58821;BME280;70670;52.476;13.334;2023-12-20T07:03:55;100216.13;;;3.54;100.00
58821;BME280;70670;52.476;13.334;2023-12-20T07:06:20;100220.41;;;3.58;100.00
58821;BME280;70670;52.476;13.334;2023-12-20T07:08:46;100224.75;;;3.59;100.00
58821;BME280;70670;52.476;13.334;2023-12-20T07:11:11;100219.47;;;3.59;100.00
58821;BME280;70670;52.476;13.334;2023-12-20T07:13:37;100228.19;;;3.63;100.00
58821;BME280;70670;52.476;13.334;2023-12-20T07:16:02;100215.78;;;3.65;100.00
58821;BME280;70670;52.476;13.334;2023-12-20T07:18:28;100210.47;;;3.65;100.00
58821;BME280;70670;52.476;13.334;2023-12-20T07:20:54;100213.91;;;3.67;100.00
58821;BME280;70670;52.476;13.334;2023-12-20T07:23:20;100222.72;;;3.67;100.00
58821;BME280;70670;52.476;13.334;2023-12-20T07:25:46;100214.75;;;3.69;100.00
58821;BME280;70670;52.476;13.334;2023-12-20T07:28:12;100213.81;;;3.70;100.00
58821;BME280;70670;52.476;13.334;2023-12-20T07:30:37;100218.16;;;3.73;100.00
58821;BME280;70670;52.476;13.334;2023-12-20T07:33:03;100223.44;;;3.73;100.00
58821;BME280;70670;52.476;13.334;2023-12-20T07:35:28;100213.72;;;3.73;100.00
58821;BME280;70670;52.476;13.334;2023-12-20T07:37:54;100211.00;;;3.75;100.00
58821;BME280;70670;52.476;13.334;2023-12-20T07:40:19;100209.22;;;3.75;100.00
58821;BME280;70670;52.476;13.334;2023-12-20T07:42:45;100210.03;;;3.77;100.00
58821;BME280;70670;52.476;13.334;2023-12-20T07:45:10;100223.19;;;3.80;100.00
58821;BME280;70670;52.476;13.334;2023-12-20T07:47:37;100209.94;;;3.80;100.00
58821;BME280;70670;52.476;13.334;2023-12-20T07:50:02;100216.84;;;3.84;100.00
58821;BME280;70670;52.476;13.334;2023-12-20T07:52:29;100208.00;;;3.85;100.00
58821;BME280;70670;52.476;13.334;2023-12-20T07:54:54;100206.38;;;3.81;100.00
58821;BME280;70670;52.476;13.334;2023-12-20T07:57:20;100201.13;;;3.80;100.00
58821;BME280;70670;52.476;13.334;2023-12-20T07:59:46;100209.81;;;3.83;100.00
58821;BME280;70670;52.476;13.334;2023-12-20T08:02:11;100204.50;;;3.83;100.00
58821;BME280;70670;52.476;13.334;2023-12-20T08:04:37;100217.66;;;3.86;100.00
58821;BME280;70670;52.476;13.334;2023-12-20T08:07:03;100203.63;;;3.84;100.00
58821;BME280;70670;52.476;13.334;2023-12-20T08:09:28;100215.09;;;3.83;100.00
58821;BME280;70670;52.476;13.334;2023-12-20T08:11:54;100211.44;;;3.87;100.00
58821;BME280;70670;52.476;13.334;2023-12-20T08:14:19;100203.56;;;3.86;100.00
58821;BME280;70670;52.476;13.334;2023-12-20T08:16:45;100214.06;;;3.87;100.00
58821;BME280;70670;52.476;13.334;2023-12-20T08:19:10;100218.56;;;3.85;100.00
58821;BME280;70670;52.476;13.334;2023-12-20T08:21:36;100221.25;;;3.84;100.00
58821;BME280;70670;52.476;13.334;2023-12-20T08:24:01;100218.69;;;3.82;100.00
58821;BME280;70670;52.476;13.334;2023-12-20T08:26:27;100207.16;;;3.83;100.00
58821;BME280;70670;52.476;13.334;2023-12-20T08:28:52;100225.50;;;3.89;100.00
58821;BME280;70670;52.476;13.334;2023-12-20T08:31:19;100219.34;;;3.89;100.00
58821;BME280;70670;52.476;13.334;2023-12-20T08:33:44;100210.47;;;3.90;100.00
58821;BME280;70670;52.476;13.334;2023-12-20T08:36:11;100208.69;;;3.90;100.00
58821;BME280;70670;52.476;13.334;2023-12-20T08:38:36;100207.75;;;3.91;100.00
58821;BME280;70670;52.476;13.334;2023-12-20T08:41:02;100204.97;;;3.96;100.00
58821;BME280;70670;52.476;13.334;2023-12-20T08:43:30;100202.25;;;3.98;100.00
58821;BME280;70670;52.476;13.334;2023-12-20T08:45:55;100188.09;;;3.99;100.00
58821;BME280;70670;52.476;13.334;2023-12-20T08:48:21;100191.56;;;4.01;100.00
58821;BME280;70670;52.476;13.334;2023-12-20T08:50:46;100191.41;;;4.04;100.00
58821;BME280;70670;52.476;13.334;2023-12-20T08:53:14;100191.31;;;4.07;100.00
58821;BME280;70670;52.476;13.334;2023-12-20T08:55:41;100184.94;;;4.12;100.00
58821;BME280;70670;52.476;13.334;2023-12-20T08:58:06;100191.88;;;4.15;100.00
58821;BME280;70670;52.476;13.334;2023-12-20T09:00:33;100209.66;;;4.11;100.00
58821;BME280;70670;52.476;13.334;2023-12-20T09:02:59;100194.69;;;4.12;100.00
58821;BME280;70670;52.476;13.334;2023-12-20T09:05:24;100189.38;;;4.12;100.00
58821;BME280;70670;52.476;13.334;2023-12-20T09:07:50;100185.81;;;4.13;100.00
58821;BME280;70670;52.476;13.334;2023-12-20T09:10:16;100188.16;;;4.21;100.00
58821;BME280;70670;52.476;13.334;2023-12-20T09:12:41;100179.13;;;4.26;100.00
58821;BME280;70670;52.476;13.334;2023-12-20T09:15:08;100184.31;;;4.29;100.00
58821;BME280;70670;52.476;13.334;2023-12-20T09:17:33;100183.38;;;4.30;100.00
58821;BME280;70670;52.476;13.334;2023-12-20T09:20:01;100177.00;;;4.36;100.00
58821;BME280;70670;52.476;13.334;2023-12-20T09:22:27;100175.13;;;4.38;100.00
58821;BME280;70670;52.476;13.334;2023-12-20T09:24:53;100177.69;;;4.41;98.32
58821;BME280;70670;52.476;13.334;2023-12-20T09:27:18;100170.59;;;4.41;98.91
58821;BME280;70670;52.476;13.334;2023-12-20T09:29:44;100167.88;;;4.43;99.16
58821;BME280;70670;52.476;13.334;2023-12-20T09:32:10;100181.06;;;4.44;97.91
58821;BME280;70670;52.476;13.334;2023-12-20T09:34:36;100170.47;;;4.44;98.13
58821;BME280;70670;52.476;13.334;2023-12-20T09:37:02;100168.75;;;4.43;97.72
58821;BME280;70670;52.476;13.334;2023-12-20T09:39:29;100158.16;;;4.43;98.32
58821;BME280;70670;52.476;13.334;2023-12-20T09:42:00;100166.97;;;4.44;97.43
58821;BME280;70670;52.476;13.334;2023-12-20T09:44:26;100161.59;;;4.46;97.96
58821;BME280;70670;52.476;13.334;2023-12-20T09:46:52;100160.63;;;4.48;98.83
58821;BME280;70670;52.476;13.334;2023-12-20T09:49:18;100159.50;;;4.54;96.79
58821;BME280;70670;52.476;13.334;2023-12-20T09:51:44;100155.03;;;4.56;96.81
58821;BME280;70670;52.476;13.334;2023-12-20T09:54:10;100163.56;;;4.62;96.80
58821;BME280;70670;52.476;13.334;2023-12-20T09:56:35;100157.31;;;4.65;95.88
58821;BME280;70670;52.476;13.334;2023-12-20T09:59:02;100156.31;;;4.67;95.14
58821;BME280;70670;52.476;13.334;2023-12-20T10:01:27;100163.22;;;4.72;94.94
58821;BME280;70670;52.476;13.334;2023-12-20T10:03:54;100149.91;;;4.73;94.56
58821;BME280;70670;52.476;13.334;2023-12-20T10:06:19;100135.72;;;4.74;93.81
58821;BME280;70670;52.476;13.334;2023-12-20T10:08:45;100148.06;;;4.75;94.54
58821;BME280;70670;52.476;13.334;2023-12-20T10:11:11;100156.03;;;4.75;94.00
58821;BME280;70670;52.476;13.334;2023-12-20T10:13:42;100130.41;;;4.74;94.35
58821;BME280;70670;52.476;13.334;2023-12-20T10:16:07;100125.06;;;4.76;94.39
58821;BME280;70670;52.476;13.334;2023-12-20T10:18:33;100126.72;;;4.78;93.66
58821;BME280;70670;52.476;13.334;2023-12-20T10:20:59;100118.72;;;4.80;93.53
58821;BME280;70670;52.476;13.334;2023-12-20T10:23:25;100113.25;;;4.83;92.70
58821;BME280;70670;52.476;13.334;2023-12-20T10:25:57;100115.88;;;4.84;92.49
58821;BME280;70670;52.476;13.334;2023-12-20T10:28:23;100103.41;;;4.86;92.48
58821;BME280;70670;52.476;13.334;2023-12-20T10:30:52;100112.16;;;4.88;91.56
58821;BME280;70670;52.476;13.334;2023-12-20T10:33:25;100097.97;;;4.89;90.83
58821;BME280;70670;52.476;13.334;2023-12-20T10:36:00;100092.66;;;4.89;91.45
58821;BME280;70670;52.476;13.334;2023-12-20T10:38:25;100092.66;;;4.89;91.14
58821;BME280;70670;52.476;13.334;2023-12-20T10:40:56;100076.75;;;4.89;91.54
58821;BME280;70670;52.476;13.334;2023-12-20T10:43:23;100069.47;;;4.94;90.73
58821;BME280;70670;52.476;13.334;2023-12-20T10:45:51;100065.06;;;4.95;90.92
58821;BME280;70670;52.476;13.334;2023-12-20T10:48:17;100049.06;;;4.97;90.16
58821;BME280;70670;52.476;13.334;2023-12-20T10:50:43;100072.81;;;5.00;89.89
58821;BME280;70670;52.476;13.334;2023-12-20T10:53:09;100070.06;;;5.01;90.61
58821;BME280;70670;52.476;13.334;2023-12-20T10:55:37;100070.81;;;5.05;89.69
58821;BME280;70670;52.476;13.334;2023-12-20T10:58:06;100049.59;;;5.05;89.37
58821;BME280;70670;52.476;13.334;2023-12-20T11:00:32;100052.16;;;5.06;89.74
58821;BME280;70670;52.476;13.334;2023-12-20T11:03:00;100051.44;;;5.03;89.97
58821;BME280;70670;52.476;13.334;2023-12-20T11:05:42;100039.84;;;5.05;90.00
58821;BME280;70670;52.476;13.334;2023-12-20T11:08:18;100039.84;;;5.05;90.39
58821;BME280;70670;52.476;13.334;2023-12-20T11:10:50;100028.38;;;5.05;90.77
58821;BME280;70670;52.476;13.334;2023-12-20T11:13:20;100043.47;;;5.03;91.74
58821;BME280;70670;52.476;13.334;2023-12-20T11:15:47;100025.94;;;5.00;92.34
58821;BME280;70670;52.476;13.334;2023-12-20T11:18:13;100028.78;;;4.96;92.79
58821;BME280;70670;52.476;13.334;2023-12-20T11:20:39;100010.34;;;4.92;92.82
58821;BME280;70670;52.476;13.334;2023-12-20T11:23:05;100006.72;;;4.95;92.77
58821;BME280;70670;52.476;13.334;2023-12-20T11:25:53;100004.13;;;4.93;92.63
58821;BME280;70670;52.476;13.334;2023-12-20T11:28:20;99994.38;;;4.94;91.99
58821;BME280;70670;52.476;13.334;2023-12-20T11:33:14;100005.13;;;4.91;92.83
58821;BME280;70670;52.476;13.334;2023-12-20T11:35:40;99998.09;;;4.90;93.07
58821;BME280;70670;52.476;13.334;2023-12-20T11:38:09;99998.16;;;4.88;93.21
58821;BME280;70670;52.476;13.334;2023-12-20T11:40:35;99984.91;;;4.88;92.63
58821;BME280;70670;52.476;13.334;2023-12-20T11:43:02;99977.81;;;4.89;93.00
58821;BME280;70670;52.476;13.334;2023-12-20T11:45:27;99972.59;;;4.87;93.46
58821;BME280;70670;52.476;13.334;2023-12-20T11:47:53;99972.59;;;4.87;93.25
58821;BME280;70670;52.476;13.334;2023-12-20T11:50:19;99974.28;;;4.88;94.35
58821;BME280;70670;52.476;13.334;2023-12-20T11:52:45;99955.75;;;4.88;94.70
58821;BME280;70670;52.476;13.334;2023-12-20T11:55:11;99963.69;;;4.88;95.04
58821;BME280;70670;52.476;13.334;2023-12-20T11:57:36;99955.94;;;4.84;94.91
58821;BME280;70670;52.476;13.334;2023-12-20T12:00:02;99946.19;;;4.84;94.33
58821;BME280;70670;52.476;13.334;2023-12-20T12:02:28;99934.56;;;4.87;93.12
58821;BME280;70670;52.476;13.334;2023-12-20T12:04:53;99941.75;;;4.85;93.12
58821;BME280;70670;52.476;13.334;2023-12-20T12:07:20;99918.63;;;4.88;92.98
58821;BME280;70670;52.476;13.334;2023-12-20T12:09:45;99916.81;;;4.89;92.96
58821;BME280;70670;52.476;13.334;2023-12-20T12:12:12;99913.19;;;4.91;92.85
58821;BME280;70670;52.476;13.334;2023-12-20T12:14:37;99911.97;;;4.99;91.20
58821;BME280;70670;52.476;13.334;2023-12-20T12:17:03;99895.91;;;5.02;91.48
58821;BME280;70670;52.476;13.334;2023-12-20T12:19:29;99913.53;;;5.03;91.48
58821;BME280;70670;52.476;13.334;2023-12-20T12:22:07;99903.66;;;5.06;90.57
58821;BME280;70670;52.476;13.334;2023-12-20T12:24:33;99883.16;;;5.10;89.78
58821;BME280;70670;52.476;13.334;2023-12-20T12:26:59;99888.47;;;5.10;90.00
58821;BME280;70670;52.476;13.334;2023-12-20T12:29:24;99900.97;;;5.08;90.52
58821;BME280;70670;52.476;13.334;2023-12-20T12:31:50;99871.09;;;5.03;91.90
58821;BME280;70670;52.476;13.334;2023-12-20T12:34:16;99887.31;;;4.97;93.36
58821;BME280;70670;52.476;13.334;2023-12-20T12:36:43;99868.38;;;4.85;95.09
58821;BME280;70670;52.476;13.334;2023-12-20T12:39:08;99856.31;;;4.78;95.30